Time,TemperatureF,DewpointF,PressureIn,WindDirection,WindDirectionDegrees,WindSpeedMPH,WindSpeedGustMPH,Humidity,HourlyPrecipIn,Conditions,Clouds,dailyrainin,SoftwareType,DateUTC
2013-02-15 00:00:00,26.1,17.7,0.00,ESE,103,0.0,0.0,70,0.00,CLR,,0.00,WeatherDisplay:10.37,2013-02-15 09:00:00,
2013-02-15 00:15:00,25.8,19.0,0.00,ESE,103,0.0,0.0,75,0.00,CLR,,0.00,WeatherDisplay:10.37,2013-02-15 09:15:00,
2013-02-15 00:30:00,25.6,19.7,0.00,WSW,242,0.0,3.0,78,0.00,CLR,,0.00,WeatherDisplay:10.37,2013-02-15 09:30:00,
2013-02-15 00:45:00,24.6,19.0,0.00,West,265,0.0,0.0,79,0.00,CLR,,0.00,WeatherDisplay:10.37,2013-02-15 09:45:00,
2013-02-15 01:00:00,24.2,18.6,0.00,SSW,197,2.0,5.0,79,0.00,CLR,,0.00,WeatherDisplay:10.37,2013-02-15 10:00:00,
2013-02-15 01:15:00,24.5,18.6,0.00,SSE,159,1.0,3.0,78,0.00,CLR,,0.00,WeatherDisplay:10.37,2013-02-15 10:15:00,
2013-02-15 01:30:00,23.6,18.0,0.00,WSW,238,6.0,9.0,79,0.00,CLR,,0.00,WeatherDisplay:10.37,2013-02-15 10:30:00,
2013-02-15 01:45:00,22.8,17.3,0.00,WSW,244,6.0,12.0,79,0.00,CLR,,0.00,WeatherDisplay:10.37,2013-02-15 10:45:00,
2013-02-15 02:00:00,22.7,16.9,0.00,SW,234,5.0,11.0,78,0.00,CLR,,0.00,WeatherDisplay:10.37,2013-02-15 11:00:00,
2013-02-15 02:15:00,21.3,15.5,0.00,SW,217,5.0,10.0,78,0.00,CLR,,0.00,WeatherDisplay:10.37,2013-02-15 11:15:00,
2013-02-15 02:30:00,19.2,13.5,0.00,SW,220,5.0,12.0,78,0.00,CLR,,0.00,WeatherDisplay:10.37,2013-02-15 11:30:00,
2013-02-15 02:45:00,15.6,10.3,0.00,SSW,208,3.0,10.0,79,0.00,CLR,,0.00,WeatherDisplay:10.37,2013-02-15 11:45:00,
2013-02-15 03:00:00,13.2,8.5,0.00,SW,218,0.0,8.0,81,0.00,CLR,,0.00,WeatherDisplay:10.37,2013-02-15 12:00:00,
2013-02-15 03:15:00,11.9,7.5,0.00,South,186,3.0,9.0,82,0.00,CLR,,0.00,WeatherDisplay:10.37,2013-02-15 12:15:00,
2013-02-15 03:30:00,11.2,6.7,0.00,SSE,151,3.0,9.0,82,0.00,CLR,,0.00,WeatherDisplay:10.37,2013-02-15 12:30:00,
2013-02-15 03:45:00,10.6,6.5,0.00,SW,214,3.0,10.0,83,0.00,CLR,,0.00,WeatherDisplay:10.37,2013-02-15 12:45:00,
2013-02-15 04:00:00,10.2,6.3,0.00,SSW,198,3.0,8.0,84,0.00,CLR,,0.00,WeatherDisplay:10.37,2013-02-15 13:00:00,
2013-02-15 04:15:00,10.2,6.3,0.00,SSE,151,3.0,6.0,84,0.00,CLR,,0.00,WeatherDisplay:10.37,2013-02-15 13:15:00,
2013-02-15 04:30:00,10.4,6.5,0.00,SE,143,1.0,7.0,84,0.00,CLR,,0.00,WeatherDisplay:10.37,2013-02-15 13:30:00,
2013-02-15 04:45:00,10.3,6.5,0.00,East,89,3.0,6.0,84,0.00,CLR,,0.00,WeatherDisplay:10.37,2013-02-15 13:45:00,
2013-02-15 05:00:00,10.2,6.3,0.00,East,89,3.0,8.0,84,0.00,CLR,,0.00,WeatherDisplay:10.37,2013-02-15 14:00:00,
2013-02-15 05:15:00,10.0,6.4,0.00,ESE,102,5.0,7.0,85,0.00,CLR,,0.00,WeatherDisplay:10.37,2013-02-15 14:15:00,
2013-02-15 05:30:00,9.7,6.1,0.00,East,88,5.0,8.0,85,0.00,CLR,,0.00,WeatherDisplay:10.37,2013-02-15 14:30:00,
2013-02-15 05:45:00,9.6,6.0,0.00,East,98,3.0,7.0,85,0.00,CLR,,0.00,WeatherDisplay:10.37,2013-02-15 14:45:00,
2013-02-15 06:00:00,9.7,6.1,0.00,East,93,5.0,6.0,85,0.00,CLR,,0.00,WeatherDisplay:10.37,2013-02-15 15:00:00,
2013-02-15 06:15:00,9.7,6.1,0.00,East,82,5.0,8.0,85,0.00,CLR,,0.00,WeatherDisplay:10.37,2013-02-15 15:15:00,
2013-02-15 06:30:00,9.6,6.0,0.00,ENE,75,5.0,8.0,85,0.00,CLR,,0.00,WeatherDisplay:10.37,2013-02-15 15:30:00,
2013-02-15 06:45:00,9.6,6.0,0.00,East,88,3.0,7.0,85,0.00,CLR,,0.00,WeatherDisplay:10.37,2013-02-15 15:45:00,
2013-02-15 07:00:00,9.5,5.9,0.00,East,88,5.0,6.0,85,0.00,CLR,,0.00,WeatherDisplay:10.37,2013-02-15 16:00:00,
2013-02-15 07:15:00,9.5,5.9,0.00,East,83,2.0,5.0,85,0.00,CLR,,0.00,WeatherDisplay:10.37,2013-02-15 16:15:00,
2013-02-15 07:30:00,9.5,5.9,0.00,ENE,75,2.0,5.0,85,0.00,CLR,,0.00,WeatherDisplay:10.37,2013-02-15 16:30:00,
2013-02-15 07:45:00,9.5,6.1,0.00,East,98,3.0,6.0,86,0.00,CLR,,0.00,WeatherDisplay:10.37,2013-02-15 16:45:00,
2013-02-15 08:00:00,9.5,6.2,0.00,East,98,0.0,6.0,86,0.00,CLR,,0.00,WeatherDisplay:10.37,2013-02-15 17:00:00,
2013-02-15 08:15:00,9.4,6.1,0.00,East,87,2.0,5.0,86,0.00,CLR,,0.00,WeatherDisplay:10.37,2013-02-15 17:15:00,
2013-02-15 08:30:00,9.4,6.1,0.00,East,90,2.0,6.0,86,0.00,CLR,,0.00,WeatherDisplay:10.37,2013-02-15 17:30:00,
2013-02-15 08:45:00,9.4,6.1,0.00,ESE,107,3.0,6.0,86,0.00,CLR,,0.00,WeatherDisplay:10.37,2013-02-15 17:45:00,
2013-02-15 09:00:00,9.4,6.1,0.00,ESE,111,1.0,5.0,86,0.00,CLR,,0.00,WeatherDisplay:10.37,2013-02-15 18:00:00,
2013-02-15 09:15:00,9.5,6.1,0.00,East,100,0.0,5.0,86,0.00,CLR,,0.00,WeatherDisplay:10.37,2013-02-15 18:15:00,
2013-02-15 09:30:00,9.5,6.2,0.00,SW,229,1.0,3.0,86,0.00,CLR,,0.00,WeatherDisplay:10.37,2013-02-15 18:30:00,
2013-02-15 09:45:00,9.9,6.5,0.00,SW,226,1.0,5.0,86,0.00,CLR,,0.00,WeatherDisplay:10.37,2013-02-15 18:45:00,
2013-02-15 10:00:00,10.3,7.2,0.00,SW,233,1.0,5.0,87,0.00,CLR,,0.00,WeatherDisplay:10.37,2013-02-15 19:00:00,
2013-02-15 10:15:00,10.8,7.7,0.00,SW,224,5.0,8.0,87,0.00,CLR,,0.00,WeatherDisplay:10.37,2013-02-15 19:15:00,
2013-02-15 10:30:00,11.1,8.2,0.00,WSW,249,5.0,9.0,88,0.00,CLR,,0.00,WeatherDisplay:10.37,2013-02-15 19:30:00,
2013-02-15 10:45:00,11.1,8.2,0.00,West,259,3.0,7.0,88,0.00,CLR,,0.00,WeatherDisplay:10.37,2013-02-15 19:45:00,
2013-02-15 11:00:00,11.1,8.2,0.00,WSW,251,6.0,8.0,88,0.00,CLR,,0.00,WeatherDisplay:10.37,2013-02-15 20:00:00,
2013-02-15 11:15:00,11.3,8.4,0.00,South,180,1.0,7.0,88,0.00,CLR,,0.00,WeatherDisplay:10.37,2013-02-15 20:15:00,
2013-02-15 11:30:00,11.5,8.7,0.00,South,172,2.0,6.0,88,0.00,CLR,,0.00,WeatherDisplay:10.37,2013-02-15 20:30:00,
2013-02-15 11:45:00,11.3,8.5,0.00,SW,234,7.0,10.0,88,0.00,CLR,,0.00,WeatherDisplay:10.37,2013-02-15 20:45:00,
2013-02-15 12:00:00,11.1,8.2,0.00,West,263,6.0,12.0,88,0.00,CLR,,0.00,WeatherDisplay:10.37,2013-02-15 21:00:00,
2013-02-15 12:15:00,10.7,8.1,0.00,West,262,8.0,12.0,89,0.00,CLR,,0.00,WeatherDisplay:10.37,2013-02-15 21:15:00,
2013-02-15 12:30:00,10.1,7.2,0.00,WSW,256,8.0,14.0,88,0.00,CLR,,0.00,WeatherDisplay:10.37,2013-02-15 21:30:00,
2013-02-15 12:45:00,9.7,6.6,0.00,West,259,7.0,15.0,87,0.00,CLR,,0.00,WeatherDisplay:10.37,2013-02-15 21:45:00,
2013-02-15 13:00:00,9.7,6.6,0.00,WSW,255,6.0,13.0,87,0.00,CLR,,0.00,WeatherDisplay:10.37,2013-02-15 22:00:00,
2013-02-15 13:15:00,9.6,6.2,0.00,WSW,254,8.0,12.0,86,0.00,CLR,,0.00,WeatherDisplay:10.37,2013-02-15 22:15:00,
2013-02-15 13:30:00,9.4,6.1,0.00,WSW,257,8.0,12.0,86,0.00,CLR,,0.00,WeatherDisplay:10.37,2013-02-15 22:30:00,
2013-02-15 13:45:00,9.4,6.0,0.00,WSW,258,6.0,10.0,86,0.00,CLR,,0.00,WeatherDisplay:10.37,2013-02-15 22:45:00,
2013-02-15 14:00:00,9.2,5.9,0.00,West,262,6.0,10.0,86,0.00,CLR,,0.00,WeatherDisplay:10.37,2013-02-15 23:00:00,
2013-02-15 14:15:00,9.0,5.7,0.00,WSW,258,7.0,10.0,86,0.00,CLR,,0.00,WeatherDisplay:10.37,2013-02-15 23:15:00,
2013-02-15 14:30:00,9.0,5.6,0.00,WSW,258,5.0,9.0,86,0.00,CLR,,0.00,WeatherDisplay:10.37,2013-02-15 23:30:00,
2013-02-15 14:45:00,9.0,5.7,0.00,WSW,258,3.0,8.0,86,0.00,CLR,,0.00,WeatherDisplay:10.37,2013-02-15 23:45:00,
2013-02-15 15:00:00,8.9,5.8,0.00,SW,231,3.0,7.0,87,0.00,CLR,,0.00,WeatherDisplay:10.37,2013-02-16 00:00:00,
2013-02-15 15:15:00,8.7,5.6,0.00,WSW,237,6.0,8.0,87,0.00,CLR,,0.00,WeatherDisplay:10.37,2013-02-16 00:15:00,
2013-02-15 15:30:00,8.7,5.6,0.00,WSW,237,2.0,8.0,87,0.00,CLR,,0.00,WeatherDisplay:10.37,2013-02-16 00:30:00,
2013-02-15 15:45:00,8.8,5.7,0.00,WSW,240,1.0,7.0,87,0.00,CLR,,0.00,WeatherDisplay:10.37,2013-02-16 00:45:00,
2013-02-15 16:00:00,8.0,4.9,0.00,SSW,209,3.0,8.0,87,0.00,CLR,,0.00,WeatherDisplay:10.37,2013-02-16 01:00:00,
2013-02-15 16:15:00,7.0,3.9,0.00,SSW,213,1.0,7.0,87,0.00,CLR,,0.00,WeatherDisplay:10.37,2013-02-16 01:15:00,
2013-02-15 16:30:00,6.3,3.3,0.00,SW,222,3.0,7.0,87,0.00,CLR,,0.00,WeatherDisplay:10.37,2013-02-16 01:30:00,
2013-02-15 16:45:00,5.8,3.0,0.00,WSW,238,3.0,6.0,88,0.00,CLR,,0.00,WeatherDisplay:10.37,2013-02-16 01:45:00,
2013-02-15 17:00:00,5.6,2.8,0.00,SW,234,6.0,8.0,88,0.00,CLR,,0.00,WeatherDisplay:10.37,2013-02-16 02:00:00,
2013-02-15 17:15:00,5.6,2.8,0.00,WSW,248,3.0,8.0,88,0.00,CLR,,0.00,WeatherDisplay:10.37,2013-02-16 02:15:00,
2013-02-15 17:30:00,5.7,2.9,0.00,WSW,254,5.0,9.0,88,0.00,CLR,,0.00,WeatherDisplay:10.37,2013-02-16 02:30:00,
2013-02-15 17:45:00,5.6,2.8,0.00,WSW,248,2.0,8.0,88,0.00,CLR,,0.00,WeatherDisplay:10.37,2013-02-16 02:45:00,
2013-02-15 18:00:00,5.2,2.4,0.00,West,259,5.0,9.0,88,0.00,CLR,,0.00,WeatherDisplay:10.37,2013-02-16 03:00:00,
2013-02-15 18:15:00,5.0,1.9,0.00,West,265,0.0,7.0,87,0.00,CLR,,0.00,WeatherDisplay:10.37,2013-02-16 03:15:00,
2013-02-15 18:30:00,4.6,1.6,0.00,WSW,258,3.0,10.0,87,0.00,CLR,,0.00,WeatherDisplay:10.37,2013-02-16 03:30:00,
2013-02-15 18:45:00,4.2,1.2,0.00,West,259,5.0,9.0,87,0.00,CLR,,0.00,WeatherDisplay:10.37,2013-02-16 03:45:00,
2013-02-15 19:00:00,3.8,0.5,0.00,WSW,255,3.0,8.0,86,0.00,CLR,,0.00,WeatherDisplay:10.37,2013-02-16 04:00:00,
2013-02-15 19:15:00,3.4,0.2,0.00,WSW,258,3.0,8.0,86,0.00,CLR,,0.00,WeatherDisplay:10.37,2013-02-16 04:15:00,
2013-02-15 19:30:00,3.2,0.0,0.00,WSW,250,3.0,7.0,86,0.00,CLR,,0.00,WeatherDisplay:10.37,2013-02-16 04:30:00,
2013-02-15 19:45:00,3.0,-0.5,0.00,WSW,251,1.0,7.0,85,0.00,CLR,,0.00,WeatherDisplay:10.37,2013-02-16 04:45:00,
2013-02-15 20:00:00,2.9,-0.6,0.00,WSW,245,3.0,8.0,85,0.00,CLR,,0.00,WeatherDisplay:10.37,2013-02-16 05:00:00,
2013-02-15 20:15:00,2.8,-0.5,0.00,SW,232,0.0,6.0,86,0.00,CLR,,0.00,WeatherDisplay:10.37,2013-02-16 05:15:00,
2013-02-15 20:30:00,2.6,-0.7,0.00,SW,217,0.0,6.0,86,0.00,CLR,,0.00,WeatherDisplay:10.37,2013-02-16 05:30:00,
2013-02-15 20:45:00,2.3,-0.9,0.00,WSW,245,2.0,6.0,86,0.00,CLR,,0.00,WeatherDisplay:10.37,2013-02-16 05:45:00,
2013-02-15 21:00:00,2.1,-1.1,0.00,WSW,243,2.0,6.0,86,0.00,CLR,,0.00,WeatherDisplay:10.37,2013-02-16 06:00:00,
2013-02-15 21:15:00,1.9,-1.3,0.00,WSW,251,0.0,5.0,86,0.00,CLR,,0.00,WeatherDisplay:10.37,2013-02-16 06:15:00,
2013-02-15 21:30:00,1.7,-1.5,0.00,WSW,251,0.0,0.0,86,0.00,CLR,,0.00,WeatherDisplay:10.37,2013-02-16 06:30:00,
2013-02-15 21:45:00,1.6,-1.6,0.00,SW,221,1.0,5.0,86,0.00,CLR,,0.00,WeatherDisplay:10.37,2013-02-16 06:45:00,
2013-02-15 22:00:00,1.6,-1.6,0.00,SSE,164,0.0,2.0,86,0.00,CLR,,0.00,WeatherDisplay:10.37,2013-02-16 07:00:00,
2013-02-15 22:15:00,1.4,-1.8,0.00,South,187,1.0,3.0,86,0.00,CLR,,0.00,WeatherDisplay:10.37,2013-02-16 07:15:00,
2013-02-15 22:30:00,1.2,-2.0,0.00,South,170,0.0,3.0,86,0.00,CLR,,0.00,WeatherDisplay:10.37,2013-02-16 07:30:00,
2013-02-15 22:45:00,0.9,-2.4,0.00,SSE,168,0.0,0.0,86,0.00,CLR,,0.00,WeatherDisplay:10.37,2013-02-16 07:45:00,
2013-02-15 23:00:00,0.6,-2.6,0.00,SSE,168,0.0,0.0,86,0.00,CLR,,0.00,WeatherDisplay:10.37,2013-02-16 08:00:00,
2013-02-15 23:15:00,0.5,-2.7,0.00,SSE,168,0.0,0.0,86,0.00,CLR,,0.00,WeatherDisplay:10.37,2013-02-16 08:15:00,
2013-02-15 23:30:00,0.3,-2.9,0.00,SSE,168,0.0,0.0,86,0.00,CLR,,0.00,WeatherDisplay:10.37,2013-02-16 08:30:00,
2013-02-15 23:45:00,0.2,-3.0,0.00,SSE,168,0.0,0.0,86,0.00,CLR,,0.00,WeatherDisplay:10.37,2013-02-16 08:45:00,